sensor_id;sensor_type;location;lat;lon;timestamp;P1;durP1;ratioP1;P2;durP2;ratioP2
39930;SDS011;26635;-35.248;149.138;2023-01-08T00:01:50;1.85;;;0.90;;
39930;SDS011;26635;-35.248;149.138;2023-01-08T00:04:22;2.72;;;0.40;;
39930;SDS011;26635;-35.248;149.138;2023-01-08T00:06:53;3.25;;;0.68;;
39930;SDS011;26635;-35.248;149.138;2023-01-08T00:09:24;2.38;;;0.70;;
39930;SDS011;26635;-35.248;149.138;2023-01-08T00:11:54;1.33;;;0.40;;
39930;SDS011;26635;-35.248;149.138;2023-01-08T00:14:26;5.53;;;0.98;;
39930;SDS011;26635;-35.248;149.138;2023-01-08T00:16:58;2.15;;;0.40;;
39930;SDS011;26635;-35.248;149.138;2023-01-08T00:19:31;3.50;;;0.57;;
39930;SDS011;26635;-35.248;149.138;2023-01-08T00:22:02;2.95;;;0.70;;
39930;SDS011;26635;-35.248;149.138;2023-01-08T00:24:33;3.42;;;1.38;;
39930;SDS011;26635;-35.248;149.138;2023-01-08T00:27:05;2.38;;;0.75;;
39930;SDS011;26635;-35.248;149.138;2023-01-08T00:29:37;1.05;;;0.50;;
39930;SDS011;26635;-35.248;149.138;2023-01-08T00:32:09;3.35;;;0.50;;
39930;SDS011;26635;-35.248;149.138;2023-01-08T00:34:41;1.45;;;0.30;;
39930;SDS011;26635;-35.248;149.138;2023-01-08T00:37:17;1.27;;;0.43;;
39930;SDS011;26635;-35.248;149.138;2023-01-08T00:39:49;2.35;;;0.40;;
39930;SDS011;26635;-35.248;149.138;2023-01-08T00:42:19;2.20;;;0.50;;
39930;SDS011;26635;-35.248;149.138;2023-01-08T00:44:50;1.30;;;0.50;;
39930;SDS011;26635;-35.248;149.138;2023-01-08T00:47:22;2.88;;;0.47;;
39930;SDS011;26635;-35.248;149.138;2023-01-08T00:49:52;0.95;;;0.35;;
39930;SDS011;26635;-35.248;149.138;2023-01-08T00:52:24;1.40;;;0.82;;
39930;SDS011;26635;-35.248;149.138;2023-01-08T00:54:54;1.90;;;0.80;;
39930;SDS011;26635;-35.248;149.138;2023-01-08T00:57:30;0.52;;;0.45;;
39930;SDS011;26635;-35.248;149.138;2023-01-08T01:00:03;2.10;;;0.55;;
39930;SDS011;26635;-35.248;149.138;2023-01-08T01:02:39;0.95;;;0.47;;
39930;SDS011;26635;-35.248;149.138;2023-01-08T01:05:11;1.75;;;0.43;;
39930;SDS011;26635;-35.248;149.138;2023-01-08T01:07:45;3.47;;;0.90;;
39930;SDS011;26635;-35.248;149.138;2023-01-08T01:10:17;1.45;;;0.43;;
39930;SDS011;26635;-35.248;149.138;2023-01-08T01:12:47;4.97;;;0.82;;
39930;SDS011;26635;-35.248;149.138;2023-01-08T01:15:18;0.82;;;0.38;;
39930;SDS011;26635;-35.248;149.138;2023-01-08T01:17:49;4.18;;;0.63;;
39930;SDS011;26635;-35.248;149.138;2023-01-08T01:20:20;1.92;;;0.85;;
39930;SDS011;26635;-35.248;149.138;2023-01-08T01:22:51;1.25;;;0.40;;
39930;SDS011;26635;-35.248;149.138;2023-01-08T01:25:22;2.30;;;0.55;;
39930;SDS011;26635;-35.248;149.138;2023-01-08T01:27:53;1.83;;;0.60;;
39930;SDS011;26635;-35.248;149.138;2023-01-08T01:30:25;3.58;;;0.60;;
39930;SDS011;26635;-35.248;149.138;2023-01-08T01:32:56;1.10;;;0.40;;
39930;SDS011;26635;-35.248;149.138;2023-01-08T01:35:26;2.13;;;0.60;;
39930;SDS011;26635;-35.248;149.138;2023-01-08T01:37:56;1.88;;;0.65;;
39930;SDS011;26635;-35.248;149.138;2023-01-08T01:40:26;2.33;;;0.98;;
39930;SDS011;26635;-35.248;149.138;2023-01-08T01:42:57;0.82;;;0.40;;
39930;SDS011;26635;-35.248;149.138;2023-01-08T01:45:28;2.28;;;0.65;;
39930;SDS011;26635;-35.248;149.138;2023-01-08T01:48:00;2.65;;;0.88;;
39930;SDS011;26635;-35.248;149.138;2023-01-08T01:53:12;2.05;;;0.95;;
39930;SDS011;26635;-35.248;149.138;2023-01-08T01:55:48;1.95;;;0.60;;
39930;SDS011;26635;-35.248;149.138;2023-01-08T01:58:23;2.03;;;0.70;;
39930;SDS011;26635;-35.248;149.138;2023-01-08T02:00:56;2.28;;;0.50;;
39930;SDS011;26635;-35.248;149.138;2023-01-08T02:03:41;1.42;;;0.57;;
39930;SDS011;26635;-35.248;149.138;2023-01-08T02:06:21;2.30;;;0.50;;
39930;SDS011;26635;-35.248;149.138;2023-01-08T02:11:42;2.10;;;0.70;;
39930;SDS011;26635;-35.248;149.138;2023-01-08T02:14:21;2.95;;;0.60;;
39930;SDS011;26635;-35.248;149.138;2023-01-08T02:17:05;3.92;;;0.65;;
39930;SDS011;26635;-35.248;149.138;2023-01-08T02:28:10;1.50;;;0.40;;
39930;SDS011;26635;-35.248;149.138;2023-01-08T02:30:44;2.80;;;0.57;;
39930;SDS011;26635;-35.248;149.138;2023-01-08T02:33:16;1.48;;;0.47;;
39930;SDS011;26635;-35.248;149.138;2023-01-08T02:35:54;2.30;;;0.50;;
39930;SDS011;26635;-35.248;149.138;2023-01-08T02:47:40;1.08;;;0.50;;
39930;SDS011;26635;-35.248;149.138;2023-01-08T02:50:20;4.22;;;1.15;;
39930;SDS011;26635;-35.248;149.138;2023-01-08T02:53:01;1.98;;;0.90;;
39930;SDS011;26635;-35.248;149.138;2023-01-08T02:55:52;3.22;;;1.20;;
39930;SDS011;26635;-35.248;149.138;2023-01-08T02:58:29;3.70;;;1.10;;
39930;SDS011;26635;-35.248;149.138;2023-01-08T03:01:03;0.95;;;0.45;;
39930;SDS011;26635;-35.248;149.138;2023-01-08T03:03:38;2.88;;;0.65;;
39930;SDS011;26635;-35.248;149.138;2023-01-08T03:06:13;4.82;;;0.90;;
39930;SDS011;26635;-35.248;149.138;2023-01-08T03:08:46;1.77;;;0.63;;
39930;SDS011;26635;-35.248;149.138;2023-01-08T03:11:20;1.75;;;0.77;;
39930;SDS011;26635;-35.248;149.138;2023-01-08T03:14:06;1.25;;;0.55;;
39930;SDS011;26635;-35.248;149.138;2023-01-08T03:17:00;1.88;;;0.52;;
39930;SDS011;26635;-35.248;149.138;2023-01-08T03:19:51;2.67;;;0.93;;
39930;SDS011;26635;-35.248;149.138;2023-01-08T03:22:29;1.73;;;0.30;;
39930;SDS011;26635;-35.248;149.138;2023-01-08T03:25:01;2.28;;;0.60;;
39930;SDS011;26635;-35.248;149.138;2023-01-08T03:27:37;1.35;;;0.45;;
39930;SDS011;26635;-35.248;149.138;2023-01-08T03:30:11;1.73;;;0.30;;
39930;SDS011;26635;-35.248;149.138;2023-01-08T03:32:44;2.72;;;0.50;;
39930;SDS011;26635;-35.248;149.138;2023-01-08T03:35:18;1.80;;;0.40;;
39930;SDS011;26635;-35.248;149.138;2023-01-08T03:37:53;1.13;;;0.32;;
39930;SDS011;26635;-35.248;149.138;2023-01-08T03:40:38;0.80;;;0.50;;
39930;SDS011;26635;-35.248;149.138;2023-01-08T03:43:14;0.55;;;0.30;;
39930;SDS011;26635;-35.248;149.138;2023-01-08T03:45:50;1.45;;;0.40;;
39930;SDS011;26635;-35.248;149.138;2023-01-08T03:48:29;1.38;;;0.50;;
39930;SDS011;26635;-35.248;149.138;2023-01-08T03:51:02;0.73;;;0.20;;
39930;SDS011;26635;-35.248;149.138;2023-01-08T03:53:38;1.87;;;0.40;;
39930;SDS011;26635;-35.248;149.138;2023-01-08T03:56:08;1.17;;;0.35;;
39930;SDS011;26635;-35.248;149.138;2023-01-08T03:58:39;1.05;;;0.40;;
39930;SDS011;26635;-35.248;149.138;2023-01-08T04:01:10;0.80;;;0.30;;
39930;SDS011;26635;-35.248;149.138;2023-01-08T04:03:40;1.23;;;0.40;;
39930;SDS011;26635;-35.248;149.138;2023-01-08T04:06:11;0.80;;;0.50;;
39930;SDS011;26635;-35.248;149.138;2023-01-08T04:08:42;1.58;;;0.50;;
39930;SDS011;26635;-35.248;149.138;2023-01-08T04:11:18;0.68;;;0.20;;
39930;SDS011;26635;-35.248;149.138;2023-01-08T04:13:51;0.88;;;0.45;;
39930;SDS011;26635;-35.248;149.138;2023-01-08T04:16:22;1.73;;;0.60;;
39930;SDS011;26635;-35.248;149.138;2023-01-08T04:18:53;2.78;;;0.73;;
39930;SDS011;26635;-35.248;149.138;2023-01-08T04:21:24;1.10;;;0.50;;
39930;SDS011;26635;-35.248;149.138;2023-01-08T04:23:55;1.75;;;0.98;;
39930;SDS011;26635;-35.248;149.138;2023-01-08T04:26:25;1.35;;;0.80;;
39930;SDS011;26635;-35.248;149.138;2023-01-08T04:28:56;1.38;;;0.90;;
39930;SDS011;26635;-35.248;149.138;2023-01-08T04:31:27;1.42;;;0.75;;
39930;SDS011;26635;-35.248;149.138;2023-01-08T04:33:59;2.30;;;0.90;;
39930;SDS011;26635;-35.248;149.138;2023-01-08T04:36:30;1.77;;;0.60;;
39930;SDS011;26635;-35.248;149.138;2023-01-08T04:39:01;1.77;;;0.60;;
39930;SDS011;26635;-35.248;149.138;2023-01-08T04:41:33;2.20;;;0.77;;
39930;SDS011;26635;-35.248;149.138;2023-01-08T04:44:04;1.45;;;0.52;;
39930;SDS011;26635;-35.248;149.138;2023-01-08T04:46:35;2.67;;;1.02;;
39930;SDS011;26635;-35.248;149.138;2023-01-08T04:49:06;2.47;;;1.63;;
39930;SDS011;26635;-35.248;149.138;2023-01-08T04:51:38;4.50;;;2.25;;
39930;SDS011;26635;-35.248;149.138;2023-01-08T04:54:09;6.35;;;3.42;;
39930;SDS011;26635;-35.248;149.138;2023-01-08T04:56:40;2.05;;;1.45;;
39930;SDS011;26635;-35.248;149.138;2023-01-08T04:59:11;3.85;;;2.10;;
39930;SDS011;26635;-35.248;149.138;2023-01-08T05:01:42;2.97;;;2.10;;
39930;SDS011;26635;-35.248;149.138;2023-01-08T05:04:14;3.53;;;2.00;;
39930;SDS011;26635;-35.248;149.138;2023-01-08T05:06:45;3.75;;;2.60;;
39930;SDS011;26635;-35.248;149.138;2023-01-08T05:09:15;2.50;;;1.80;;
39930;SDS011;26635;-35.248;149.138;2023-01-08T05:11:47;4.10;;;1.60;;
39930;SDS011;26635;-35.248;149.138;2023-01-08T05:14:17;4.07;;;2.13;;
39930;SDS011;26635;-35.248;149.138;2023-01-08T05:16:48;3.40;;;1.60;;
39930;SDS011;26635;-35.248;149.138;2023-01-08T05:19:19;5.68;;;2.03;;
39930;SDS011;26635;-35.248;149.138;2023-01-08T05:21:50;4.22;;;2.60;;
39930;SDS011;26635;-35.248;149.138;2023-01-08T05:24:21;4.05;;;2.88;;
39930;SDS011;26635;-35.248;149.138;2023-01-08T05:26:51;5.53;;;3.78;;
39930;SDS011;26635;-35.248;149.138;2023-01-08T05:29:29;3.20;;;2.35;;
39930;SDS011;26635;-35.248;149.138;2023-01-08T05:32:00;4.65;;;3.05;;
39930;SDS011;26635;-35.248;149.138;2023-01-08T05:34:31;3.88;;;2.83;;
39930;SDS011;26635;-35.248;149.138;2023-01-08T05:37:02;4.80;;;3.10;;
39930;SDS011;26635;-35.248;149.138;2023-01-08T05:39:33;4.43;;;3.00;;
39930;SDS011;26635;-35.248;149.138;2023-01-08T05:42:04;5.13;;;3.75;;
39930;SDS011;26635;-35.248;149.138;2023-01-08T05:44:35;4.55;;;3.13;;
39930;SDS011;26635;-35.248;149.138;2023-01-08T05:47:05;6.35;;;3.60;;
39930;SDS011;26635;-35.248;149.138;2023-01-08T05:49:36;5.38;;;4.13;;
39930;SDS011;26635;-35.248;149.138;2023-01-08T05:52:09;5.80;;;4.97;;
39930;SDS011;26635;-35.248;149.138;2023-01-08T05:54:40;6.32;;;4.47;;
39930;SDS011;26635;-35.248;149.138;2023-01-08T05:57:12;7.53;;;4.88;;
39930;SDS011;26635;-35.248;149.138;2023-01-08T05:59:42;5.72;;;3.97;;
39930;SDS011;26635;-35.248;149.138;2023-01-08T06:02:13;6.43;;;4.72;;
39930;SDS011;26635;-35.248;149.138;2023-01-08T06:04:44;6.80;;;4.32;;
39930;SDS011;26635;-35.248;149.138;2023-01-08T06:07:15;6.55;;;4.22;;
39930;SDS011;26635;-35.248;149.138;2023-01-08T06:09:45;6.00;;;4.20;;
39930;SDS011;26635;-35.248;149.138;2023-01-08T06:12:16;5.43;;;4.28;;
39930;SDS011;26635;-35.248;149.138;2023-01-08T06:14:47;6.80;;;4.40;;
39930;SDS011;26635;-35.248;149.138;2023-01-08T06:17:18;7.57;;;5.28;;
39930;SDS011;26635;-35.248;149.138;2023-01-08T06:19:48;10.23;;;5.05;;
39930;SDS011;26635;-35.248;149.138;2023-01-08T06:22:19;5.38;;;4.18;;
39930;SDS011;26635;-35.248;149.138;2023-01-08T06:24:50;5.05;;;3.25;;
39930;SDS011;26635;-35.248;149.138;2023-01-08T06:27:20;3.72;;;2.60;;
39930;SDS011;26635;-35.248;149.138;2023-01-08T06:29:50;7.05;;;3.15;;
39930;SDS011;26635;-35.248;149.138;2023-01-08T06:32:21;2.72;;;1.98;;
39930;SDS011;26635;-35.248;149.138;2023-01-08T06:34:52;4.13;;;2.75;;
39930;SDS011;26635;-35.248;149.138;2023-01-08T06:37:23;3.92;;;2.40;;
39930;SDS011;26635;-35.248;149.138;2023-01-08T06:39:53;4.18;;;2.50;;
39930;SDS011;26635;-35.248;149.138;2023-01-08T06:42:24;4.18;;;2.53;;
39930;SDS011;26635;-35.248;149.138;2023-01-08T06:44:55;3.22;;;2.75;;
39930;SDS011;26635;-35.248;149.138;2023-01-08T06:47:26;3.85;;;2.63;;
39930;SDS011;26635;-35.248;149.138;2023-01-08T06:49:57;3.38;;;2.72;;
39930;SDS011;26635;-35.248;149.138;2023-01-08T06:52:27;4.40;;;2.65;;
39930;SDS011;26635;-35.248;149.138;2023-01-08T06:54:58;4.25;;;2.65;;
39930;SDS011;26635;-35.248;149.138;2023-01-08T06:57:30;3.65;;;2.50;;
39930;SDS011;26635;-35.248;149.138;2023-01-08T07:00:00;3.25;;;2.60;;
39930;SDS011;26635;-35.248;149.138;2023-01-08T07:02:31;4.85;;;2.55;;
39930;SDS011;26635;-35.248;149.138;2023-01-08T07:05:02;3.00;;;1.80;;
39930;SDS011;26635;-35.248;149.138;2023-01-08T07:07:32;3.58;;;2.30;;
39930;SDS011;26635;-35.248;149.138;2023-01-08T07:10:03;4.65;;;2.05;;
39930;SDS011;26635;-35.248;149.138;2023-01-08T07:12:34;4.90;;;2.30;;
39930;SDS011;26635;-35.248;149.138;2023-01-08T07:15:05;4.60;;;2.45;;
39930;SDS011;26635;-35.248;149.138;2023-01-08T07:17:36;3.95;;;2.15;;
39930;SDS011;26635;-35.248;149.138;2023-01-08T07:20:07;2.75;;;1.60;;
39930;SDS011;26635;-35.248;149.138;2023-01-08T07:22:38;3.17;;;2.10;;
39930;SDS011;26635;-35.248;149.138;2023-01-08T07:25:09;2.42;;;1.60;;
39930;SDS011;26635;-35.248;149.138;2023-01-08T07:27:39;2.00;;;1.48;;
39930;SDS011;26635;-35.248;149.138;2023-01-08T07:30:10;3.92;;;1.95;;
39930;SDS011;26635;-35.248;149.138;2023-01-08T07:33:01;3.50;;;1.85;;
39930;SDS011;26635;-35.248;149.138;2023-01-08T07:35:31;1.63;;;1.20;;
39930;SDS011;26635;-35.248;149.138;2023-01-08T07:38:05;3.05;;;0.90;;
39930;SDS011;26635;-35.248;149.138;2023-01-08T07:40:35;2.78;;;0.93;;
39930;SDS011;26635;-35.248;149.138;2023-01-08T07:43:07;2.17;;;0.93;;
39930;SDS011;26635;-35.248;149.138;2023-01-08T07:45:44;2.72;;;0.98;;
39930;SDS011;26635;-35.248;149.138;2023-01-08T07:48:15;2.63;;;0.82;;
39930;SDS011;26635;-35.248;149.138;2023-01-08T07:50:45;1.95;;;0.77;;
39930;SDS011;26635;-35.248;149.138;2023-01-08T07:53:18;2.58;;;1.13;;
39930;SDS011;26635;-35.248;149.138;2023-01-08T07:55:49;1.70;;;0.63;;
39930;SDS011;26635;-35.248;149.138;2023-01-08T07:58:19;2.58;;;1.23;;
39930;SDS011;26635;-35.248;149.138;2023-01-08T08:00:49;2.15;;;0.50;;
39930;SDS011;26635;-35.248;149.138;2023-01-08T08:03:19;1.58;;;0.90;;
39930;SDS011;26635;-35.248;149.138;2023-01-08T08:05:50;2.72;;;1.33;;
39930;SDS011;26635;-35.248;149.138;2023-01-08T08:08:27;2.53;;;0.80;;
39930;SDS011;26635;-35.248;149.138;2023-01-08T08:10:57;2.92;;;0.80;;
39930;SDS011;26635;-35.248;149.138;2023-01-08T08:13:29;3.05;;;0.50;;
39930;SDS011;26635;-35.248;149.138;2023-01-08T08:16:00;0.65;;;0.40;;
39930;SDS011;26635;-35.248;149.138;2023-01-08T08:18:32;2.03;;;0.50;;
39930;SDS011;26635;-35.248;149.138;2023-01-08T08:21:03;2.53;;;0.70;;
39930;SDS011;26635;-35.248;149.138;2023-01-08T08:23:34;1.90;;;0.40;;
39930;SDS011;26635;-35.248;149.138;2023-01-08T08:26:06;1.52;;;0.73;;
39930;SDS011;26635;-35.248;149.138;2023-01-08T08:28:36;1.45;;;0.50;;
39930;SDS011;26635;-35.248;149.138;2023-01-08T08:31:07;1.38;;;0.30;;
39930;SDS011;26635;-35.248;149.138;2023-01-08T08:33:42;1.05;;;0.40;;
39930;SDS011;26635;-35.248;149.138;2023-01-08T08:36:14;2.38;;;0.30;;
39930;SDS011;26635;-35.248;149.138;2023-01-08T08:38:44;1.70;;;0.50;;
39930;SDS011;26635;-35.248;149.138;2023-01-08T08:41:15;1.38;;;0.60;;
39930;SDS011;26635;-35.248;149.138;2023-01-08T08:43:46;1.00;;;0.30;;
39930;SDS011;26635;-35.248;149.138;2023-01-08T08:46:19;1.92;;;0.70;;
39930;SDS011;26635;-35.248;149.138;2023-01-08T08:48:49;3.83;;;0.70;;
39930;SDS011;26635;-35.248;149.138;2023-01-08T08:51:21;1.58;;;0.35;;
39930;SDS011;26635;-35.248;149.138;2023-01-08T08:53:53;2.40;;;0.32;;
39930;SDS011;26635;-35.248;149.138;2023-01-08T08:56:24;0.93;;;0.40;;
39930;SDS011;26635;-35.248;149.138;2023-01-08T08:58:58;1.50;;;0.47;;
39930;SDS011;26635;-35.248;149.138;2023-01-08T09:01:29;1.30;;;0.80;;
39930;SDS011;26635;-35.248;149.138;2023-01-08T09:04:01;2.63;;;0.93;;
39930;SDS011;26635;-35.248;149.138;2023-01-08T09:06:35;2.92;;;0.88;;
39930;SDS011;26635;-35.248;149.138;2023-01-08T09:09:08;3.15;;;1.00;;
39930;SDS011;26635;-35.248;149.138;2023-01-08T09:11:40;5.10;;;1.00;;
39930;SDS011;26635;-35.248;149.138;2023-01-08T09:14:10;3.42;;;1.33;;
39930;SDS011;26635;-35.248;149.138;2023-01-08T09:16:43;1.92;;;1.65;;
39930;SDS011;26635;-35.248;149.138;2023-01-08T09:19:14;3.28;;;1.23;;
39930;SDS011;26635;-35.248;149.138;2023-01-08T09:21:45;3.45;;;1.30;;
39930;SDS011;26635;-35.248;149.138;2023-01-08T09:24:16;2.83;;;1.63;;
39930;SDS011;26635;-35.248;149.138;2023-01-08T09:26:48;4.53;;;1.42;;
39930;SDS011;26635;-35.248;149.138;2023-01-08T09:29:21;2.45;;;1.48;;
39930;SDS011;26635;-35.248;149.138;2023-01-08T09:31:53;2.90;;;1.23;;
39930;SDS011;26635;-35.248;149.138;2023-01-08T09:34:26;5.05;;;1.55;;
39930;SDS011;26635;-35.248;149.138;2023-01-08T09:36:59;4.15;;;1.45;;
39930;SDS011;26635;-35.248;149.138;2023-01-08T09:39:30;2.97;;;1.27;;
39930;SDS011;26635;-35.248;149.138;2023-01-08T09:42:03;2.80;;;1.45;;
39930;SDS011;26635;-35.248;149.138;2023-01-08T09:44:36;2.45;;;1.25;;
39930;SDS011;26635;-35.248;149.138;2023-01-08T09:47:27;1.77;;;1.25;;
39930;SDS011;26635;-35.248;149.138;2023-01-08T09:50:06;5.18;;;1.60;;
39930;SDS011;26635;-35.248;149.138;2023-01-08T09:52:41;3.00;;;1.45;;
39930;SDS011;26635;-35.248;149.138;2023-01-08T09:55:13;3.35;;;1.33;;
39930;SDS011;26635;-35.248;149.138;2023-01-08T09:57:46;3.63;;;1.48;;
39930;SDS011;26635;-35.248;149.138;2023-01-08T10:00:23;5.05;;;1.40;;
39930;SDS011;26635;-35.248;149.138;2023-01-08T10:03:00;4.43;;;1.50;;
39930;SDS011;26635;-35.248;149.138;2023-01-08T10:05:31;6.97;;;2.28;;
39930;SDS011;26635;-35.248;149.138;2023-01-08T10:08:04;7.13;;;2.92;;
39930;SDS011;26635;-35.248;149.138;2023-01-08T10:10:35;5.88;;;1.25;;
39930;SDS011;26635;-35.248;149.138;2023-01-08T10:13:08;2.10;;;0.93;;
39930;SDS011;26635;-35.248;149.138;2023-01-08T10:15:41;5.55;;;1.25;;
39930;SDS011;26635;-35.248;149.138;2023-01-08T10:18:14;5.85;;;1.90;;
39930;SDS011;26635;-35.248;149.138;2023-01-08T10:20:51;2.67;;;1.02;;
39930;SDS011;26635;-35.248;149.138;2023-01-08T10:23:22;5.82;;;1.30;;
39930;SDS011;26635;-35.248;149.138;2023-01-08T10:25:54;3.13;;;1.13;;
39930;SDS011;26635;-35.248;149.138;2023-01-08T10:28:31;3.65;;;1.02;;
39930;SDS011;26635;-35.248;149.138;2023-01-08T10:31:10;2.75;;;1.00;;
39930;SDS011;26635;-35.248;149.138;2023-01-08T10:33:48;3.58;;;1.25;;
39930;SDS011;26635;-35.248;149.138;2023-01-08T10:36:21;3.83;;;0.98;;
39930;SDS011;26635;-35.248;149.138;2023-01-08T10:38:59;7.25;;;1.73;;
39930;SDS011;26635;-35.248;149.138;2023-01-08T10:41:35;4.45;;;1.08;;
39930;SDS011;26635;-35.248;149.138;2023-01-08T10:44:13;3.38;;;1.23;;
39930;SDS011;26635;-35.248;149.138;2023-01-08T10:46:47;5.50;;;1.10;;
39930;SDS011;26635;-35.248;149.138;2023-01-08T10:52:01;2.55;;;1.10;;
39930;SDS011;26635;-35.248;149.138;2023-01-08T10:54:37;4.30;;;1.83;;
39930;SDS011;26635;-35.248;149.138;2023-01-08T10:57:28;4.07;;;1.38;;
39930;SDS011;26635;-35.248;149.138;2023-01-08T11:00:00;6.32;;;1.33;;
39930;SDS011;26635;-35.248;149.138;2023-01-08T11:02:33;3.35;;;1.02;;
39930;SDS011;26635;-35.248;149.138;2023-01-08T11:07:39;4.03;;;1.30;;
39930;SDS011;26635;-35.248;149.138;2023-01-08T11:10:20;4.22;;;1.35;;
39930;SDS011;26635;-35.248;149.138;2023-01-08T11:12:54;3.22;;;1.77;;
39930;SDS011;26635;-35.248;149.138;2023-01-08T11:15:31;3.67;;;1.08;;
39930;SDS011;26635;-35.248;149.138;2023-01-08T11:18:05;3.05;;;1.17;;
39930;SDS011;26635;-35.248;149.138;2023-01-08T11:20:45;5.25;;;1.70;;
39930;SDS011;26635;-35.248;149.138;2023-01-08T11:23:21;2.75;;;1.10;;
39930;SDS011;26635;-35.248;149.138;2023-01-08T11:26:10;4.55;;;1.20;;
39930;SDS011;26635;-35.248;149.138;2023-01-08T11:31:42;3.10;;;1.55;;
39930;SDS011;26635;-35.248;149.138;2023-01-08T11:34:23;3.75;;;1.15;;
39930;SDS011;26635;-35.248;149.138;2023-01-08T11:37:26;4.05;;;1.02;;
39930;SDS011;26635;-35.248;149.138;2023-01-08T11:40:12;2.83;;;1.38;;
39930;SDS011;26635;-35.248;149.138;2023-01-08T11:42:46;2.90;;;1.70;;
39930;SDS011;26635;-35.248;149.138;2023-01-08T12:09:56;3.00;;;1.10;;
39930;SDS011;26635;-35.248;149.138;2023-01-08T12:13:03;4.80;;;1.23;;
39930;SDS011;26635;-35.248;149.138;2023-01-08T12:24:50;4.30;;;1.73;;
39930;SDS011;26635;-35.248;149.138;2023-01-08T12:36:01;3.53;;;0.80;;
39930;SDS011;26635;-35.248;149.138;2023-01-08T12:38:40;3.08;;;0.68;;
39930;SDS011;26635;-35.248;149.138;2023-01-08T12:41:13;3.13;;;1.00;;
39930;SDS011;26635;-35.248;149.138;2023-01-08T12:43:55;1.75;;;0.90;;
39930;SDS011;26635;-35.248;149.138;2023-01-08T12:46:33;5.13;;;1.48;;
39930;SDS011;26635;-35.248;149.138;2023-01-08T12:49:07;4.20;;;1.15;;
39930;SDS011;26635;-35.248;149.138;2023-01-08T12:51:58;4.40;;;1.27;;
39930;SDS011;26635;-35.248;149.138;2023-01-08T12:57:30;4.55;;;1.80;;
39930;SDS011;26635;-35.248;149.138;2023-01-08T13:03:01;1.50;;;0.88;;
39930;SDS011;26635;-35.248;149.138;2023-01-08T13:05:35;5.95;;;1.30;;
39930;SDS011;26635;-35.248;149.138;2023-01-08T13:08:07;3.22;;;1.77;;
39930;SDS011;26635;-35.248;149.138;2023-01-08T13:10:59;3.08;;;0.80;;
39930;SDS011;26635;-35.248;149.138;2023-01-08T13:18:52;6.35;;;1.40;;
39930;SDS011;26635;-35.248;149.138;2023-01-08T13:29:47;5.30;;;1.33;;
39930;SDS011;26635;-35.248;149.138;2023-01-08T13:32:42;3.33;;;1.55;;
39930;SDS011;26635;-35.248;149.138;2023-01-08T13:35:20;4.30;;;1.30;;
39930;SDS011;26635;-35.248;149.138;2023-01-08T13:46:16;2.95;;;0.90;;
39930;SDS011;26635;-35.248;149.138;2023-01-08T13:51:29;3.88;;;1.05;;
39930;SDS011;26635;-35.248;149.138;2023-01-08T13:54:22;4.63;;;1.35;;
39930;SDS011;26635;-35.248;149.138;2023-01-08T13:57:04;3.83;;;1.40;;
39930;SDS011;26635;-35.248;149.138;2023-01-08T13:59:54;2.38;;;1.42;;
39930;SDS011;26635;-35.248;149.138;2023-01-08T14:02:30;3.75;;;1.55;;
39930;SDS011;26635;-35.248;149.138;2023-01-08T14:05:13;5.25;;;1.50;;
39930;SDS011;26635;-35.248;149.138;2023-01-08T14:07:51;4.55;;;1.83;;
39930;SDS011;26635;-35.248;149.138;2023-01-08T14:10:24;3.13;;;0.98;;
39930;SDS011;26635;-35.248;149.138;2023-01-08T14:13:04;4.57;;;1.20;;
39930;SDS011;26635;-35.248;149.138;2023-01-08T14:15:37;4.82;;;1.77;;
39930;SDS011;26635;-35.248;149.138;2023-01-08T14:18:11;3.95;;;1.67;;
39930;SDS011;26635;-35.248;149.138;2023-01-08T14:20:43;2.78;;;1.40;;
39930;SDS011;26635;-35.248;149.138;2023-01-08T14:23:19;3.53;;;1.60;;
39930;SDS011;26635;-35.248;149.138;2023-01-08T14:25:56;3.75;;;1.77;;
39930;SDS011;26635;-35.248;149.138;2023-01-08T14:28:31;5.90;;;1.58;;
39930;SDS011;26635;-35.248;149.138;2023-01-08T14:31:02;3.17;;;1.58;;
39930;SDS011;26635;-35.248;149.138;2023-01-08T14:33:36;5.93;;;1.42;;
39930;SDS011;26635;-35.248;149.138;2023-01-08T14:36:08;2.22;;;1.40;;
39930;SDS011;26635;-35.248;149.138;2023-01-08T14:38:39;3.70;;;1.55;;
39930;SDS011;26635;-35.248;149.138;2023-01-08T14:41:11;1.90;;;1.30;;
39930;SDS011;26635;-35.248;149.138;2023-01-08T14:43:46;4.00;;;1.30;;
39930;SDS011;26635;-35.248;149.138;2023-01-08T14:46:23;3.75;;;1.60;;
39930;SDS011;26635;-35.248;149.138;2023-01-08T14:48:59;4.00;;;1.25;;
39930;SDS011;26635;-35.248;149.138;2023-01-08T14:51:30;5.68;;;1.42;;
39930;SDS011;26635;-35.248;149.138;2023-01-08T14:54:02;2.92;;;1.38;;
39930;SDS011;26635;-35.248;149.138;2023-01-08T14:56:37;3.35;;;1.60;;
39930;SDS011;26635;-35.248;149.138;2023-01-08T14:59:08;7.40;;;1.98;;
39930;SDS011;26635;-35.248;149.138;2023-01-08T15:01:40;2.70;;;1.23;;
39930;SDS011;26635;-35.248;149.138;2023-01-08T15:04:18;3.60;;;1.23;;
39930;SDS011;26635;-35.248;149.138;2023-01-08T15:06:51;4.10;;;1.25;;
39930;SDS011;26635;-35.248;149.138;2023-01-08T15:09:33;3.90;;;1.50;;
39930;SDS011;26635;-35.248;149.138;2023-01-08T15:12:05;4.05;;;1.48;;
39930;SDS011;26635;-35.248;149.138;2023-01-08T15:14:51;3.92;;;1.55;;
39930;SDS011;26635;-35.248;149.138;2023-01-08T15:17:24;5.43;;;2.20;;
39930;SDS011;26635;-35.248;149.138;2023-01-08T15:19:58;6.37;;;1.30;;
39930;SDS011;26635;-35.248;149.138;2023-01-08T15:22:30;2.55;;;1.05;;
39930;SDS011;26635;-35.248;149.138;2023-01-08T15:25:03;5.95;;;1.98;;
39930;SDS011;26635;-35.248;149.138;2023-01-08T15:27:37;3.92;;;1.25;;
39930;SDS011;26635;-35.248;149.138;2023-01-08T15:30:21;2.40;;;1.60;;
39930;SDS011;26635;-35.248;149.138;2023-01-08T15:33:04;5.57;;;1.88;;
39930;SDS011;26635;-35.248;149.138;2023-01-08T15:35:50;3.13;;;1.55;;
39930;SDS011;26635;-35.248;149.138;2023-01-08T15:38:26;3.10;;;1.70;;
39930;SDS011;26635;-35.248;149.138;2023-01-08T15:40:58;3.72;;;2.05;;
39930;SDS011;26635;-35.248;149.138;2023-01-08T15:43:29;3.97;;;1.52;;
39930;SDS011;26635;-35.248;149.138;2023-01-08T15:46:00;3.17;;;1.60;;
39930;SDS011;26635;-35.248;149.138;2023-01-08T15:48:33;3.72;;;1.48;;
39930;SDS011;26635;-35.248;149.138;2023-01-08T15:51:04;3.50;;;1.90;;
39930;SDS011;26635;-35.248;149.138;2023-01-08T15:53:36;3.88;;;1.60;;
39930;SDS011;26635;-35.248;149.138;2023-01-08T15:56:07;4.70;;;1.70;;
39930;SDS011;26635;-35.248;149.138;2023-01-08T15:58:38;3.80;;;1.45;;
39930;SDS011;26635;-35.248;149.138;2023-01-08T16:01:09;3.50;;;1.40;;
39930;SDS011;26635;-35.248;149.138;2023-01-08T16:03:40;7.30;;;1.80;;
39930;SDS011;26635;-35.248;149.138;2023-01-08T16:06:12;6.68;;;2.78;;
39930;SDS011;26635;-35.248;149.138;2023-01-08T16:08:43;2.38;;;1.55;;
39930;SDS011;26635;-35.248;149.138;2023-01-08T16:11:17;6.47;;;2.00;;
39930;SDS011;26635;-35.248;149.138;2023-01-08T16:13:59;2.15;;;1.63;;
39930;SDS011;26635;-35.248;149.138;2023-01-08T16:16:30;2.22;;;1.33;;
39930;SDS011;26635;-35.248;149.138;2023-01-08T16:19:01;3.70;;;1.45;;
39930;SDS011;26635;-35.248;149.138;2023-01-08T16:21:33;7.00;;;1.63;;
39930;SDS011;26635;-35.248;149.138;2023-01-08T16:24:04;2.45;;;1.85;;
39930;SDS011;26635;-35.248;149.138;2023-01-08T16:26:35;3.35;;;1.52;;
39930;SDS011;26635;-35.248;149.138;2023-01-08T16:29:06;5.28;;;1.60;;
39930;SDS011;26635;-35.248;149.138;2023-01-08T16:31:37;2.47;;;1.67;;